Latest Weather Observations for Point Fawcett

IDD60901

Issued at 8:21 pm CST Monday 20 February 2017 (issued every 10 minutes, with the page automatically refreshed every 10 minutes)

About weather observations | Map of Darwin area stations | Latest observations for Darwin area | Other Formats
Station Details ID: 200731 Name: POINT FAWCETT Lat: -11.76 Lon: 130.03 Height: 6.5 m
Data from the previous 72 hours. | See also: Recent months at Point Fawcett
Date/Time
CST
Temp
°C
App
Temp
°C
Dew
Point
°C
Rel
Hum
%
Delta-T
°C
Wind Press
QNH
hPa
Press
MSL
hPa
Rain since
9am
mm
Dir  Spd
km/h
Gust
km/h
Spd
kts
Gust
kts
20/08:00pm 28.7 34.4 27.5 93 0.9 SW 13 19 7 10 1008.6 - 0.2
20/07:30pm 28.9 34.8 27.3 91 1.2 WSW 11 15 6 8 1008.4 - 0.2
20/07:00pm 29.6 35.1 26.8 85 2.0 SW 11 15 6 8 1007.9 - 0.2
20/06:30pm 30.7 36.6 27.9 85 2.0 SW 13 17 7 9 1007.5 - 0.2
20/06:00pm 31.2 36.8 28.0 83 2.3 SW 15 20 8 11 1007.2 1007.1 0.2
20/05:30pm 31.7 37.7 28.0 81 2.7 SW 13 19 7 10 1006.8 - 0.2
20/05:00pm 31.9 37.8 27.8 79 3.0 SW 13 19 7 10 1006.7 - 0.2
20/04:30pm 31.9 37.9 28.0 80 2.8 WSW 13 19 7 10 1006.7 - 0.2
20/04:00pm 32.2 38.6 28.5 81 2.7 WSW 13 19 7 10 1006.5 - 0.2
20/03:30pm 32.2 37.9 27.6 76 3.3 WSW 13 19 7 10 1006.8 - 0.2
20/03:00pm 32.8 39.1 28.4 77 3.2 WSW 13 17 7 9 1007.0 1006.9 0.2
20/02:30pm 32.1 39.6 29.0 84 2.3 WSW 9 13 5 7 1007.4 - 0.2
20/02:00pm 31.7 38.2 28.2 82 2.6 W 11 17 6 9 1007.7 - 0.2
20/01:30pm 31.9 38.3 28.0 80 2.8 WSW 11 15 6 8 1008.0 - 0.2
20/01:00pm 31.9 38.6 28.4 82 2.6 WSW 11 15 6 8 1008.5 - 0.2
20/12:30pm 31.2 37.3 27.1 79 3.0 WSW 9 13 5 7 1008.7 - 0.2
20/12:00pm 30.2 35.3 25.0 73 3.7 W 7 9 4 5 1009.0 1008.9 0.2
20/11:30am 30.8 35.8 25.4 73 3.8 WSW 9 13 5 7 1009.2 - 0.2
20/11:00am 30.3 35.1 25.1 73 3.7 WSW 9 11 5 6 1009.6 - 0.2
20/10:30am 29.7 34.2 25.2 77 3.2 SW 11 15 6 8 1009.7 - 0.2
20/10:00am 28.9 35.3 26.7 88 1.6 N 6 9 3 5 1009.7 - 0.2
20/09:30am 28.0 35.4 27.5 97 0.4 ESE 4 7 2 4 1009.6 - 0.0
20/09:00am 26.6 33.0 26.6 100 0.0 ENE 6 9 3 5 1009.5 1009.4 2.4
20/08:30am 25.3 - 25.5 - - S 9 11 5 6 1009.3 - 2.4
20/08:00am 23.9 28.6 23.9 100 0.0 SSW 6 9 3 5 1009.2 - 2.4
20/07:30am 23.1 26.3 23.1 100 0.0 S 11 20 6 11 1009.4 - 2.2
20/07:00am 23.3 25.9 23.3 100 0.0 SSE 15 30 8 16 1009.5 - 2.0
20/06:30am 28.2 34.7 28.2 100 0.0 SSW 11 20 6 11 1009.0 - 0.0
20/06:00am 28.3 33.2 28.3 100 0.0 W 20 26 11 14 1007.8 1007.7 0.0
20/05:30am 28.2 32.3 28.2 100 0.0 W 24 30 13 16 1007.5 - 0.0
20/05:00am 28.3 32.8 28.3 100 0.0 W 22 30 12 16 1007.5 - 0.0
20/04:30am 28.2 32.5 28.0 99 0.1 W 22 28 12 15 1007.4 - 0.0
20/04:00am 28.3 32.9 27.6 96 0.5 W 19 24 10 13 1007.4 - 0.0
20/03:30am 28.2 32.0 26.8 92 1.0 W 20 24 11 13 1007.2 - 0.0
20/03:00am 28.2 31.9 26.6 91 1.1 W 20 26 11 14 1007.1 1007.0 0.0
20/02:30am 28.1 31.9 26.7 92 1.0 W 20 26 11 14 1007.8 - 0.0
20/02:00am 28.2 32.2 27.0 93 0.9 W 20 26 11 14 1008.0 - 0.0
20/01:30am 28.1 32.5 27.4 96 0.5 W 19 26 10 14 1008.4 - 0.0
20/01:00am 27.9 32.2 27.2 96 0.5 WSW 19 26 10 14 1008.5 - 0.0
20/12:30am 28.0 33.0 27.7 98 0.2 WSW 17 24 9 13 1008.7 - 0.0
20/12:00am 28.1 33.3 27.9 99 0.1 WSW 17 24 9 13 1008.8 1008.7 0.0
 
Date/Time
CST
Temp
°C
App
Temp
°C
Dew
Point
°C
Rel
Hum
%
Delta-T
°C
Wind Press
QNH
hPa
Press
MSL
hPa
Rain since
9am
mm
Dir  Spd
km/h
Gust
km/h
Spd
kts
Gust
kts
19/11:30pm 28.2 33.4 27.9 98 0.2 WSW 17 24 9 13 1008.9 - 0.0
19/11:00pm 28.2 33.2 27.7 97 0.4 WSW 17 24 9 13 1009.2 - 0.0
19/10:30pm 28.4 33.4 27.7 96 0.5 WSW 17 24 9 13 1009.0 - 0.0
19/10:00pm 28.4 32.5 27.2 93 0.9 WSW 20 28 11 15 1008.5 - 0.0
19/09:30pm 28.5 32.9 27.3 93 0.9 WSW 19 28 10 15 1008.4 - 0.0
19/09:00pm 28.7 33.1 27.3 92 1.0 SW 19 28 10 15 1008.2 1008.1 0.0
19/08:30pm 28.6 32.7 27.2 92 1.0 SW 20 28 11 15 1007.6 - 0.0
19/08:00pm 28.5 33.2 27.3 93 0.9 SW 17 24 9 13 1007.1 - 0.0
19/07:30pm 28.4 33.2 26.2 88 1.6 SW 13 22 7 12 1006.8 - 0.0
19/07:00pm 28.7 32.4 25.1 81 2.5 SW 15 20 8 11 1006.6 - 0.0
19/06:30pm 28.9 33.3 26.3 86 1.9 W 15 19 8 10 1006.4 - 0.0
19/06:00pm 29.0 33.2 26.0 84 2.1 WSW 15 20 8 11 1006.1 1006.0 0.0
19/05:30pm 29.3 33.1 25.9 82 2.4 W 17 22 9 12 1006.1 - 0.0
19/05:00pm 30.0 33.8 25.3 76 3.3 WSW 15 19 8 10 1006.2 - 0.0
19/04:30pm 30.2 34.6 25.7 77 3.2 WSW 13 20 7 11 1006.4 - 0.0
19/04:00pm 30.2 34.8 25.9 78 3.1 WSW 13 17 7 9 1006.2 - 0.0
19/03:30pm 30.2 33.8 25.0 73 3.7 W 15 20 8 11 1005.9 - 0.0
19/03:00pm 30.3 33.8 24.9 73 3.8 WSW 15 20 8 11 1006.2 1006.1 0.0
19/02:30pm 31.1 34.6 25.4 71 4.0 W 17 22 9 12 1006.8 - 0.0
19/02:00pm 30.5 33.7 25.6 75 3.5 W 19 22 10 12 1007.5 - 0.0
19/01:30pm 30.7 34.3 26.2 77 3.2 W 19 28 10 15 1007.9 - 0.0
19/01:00pm 30.6 34.4 26.5 79 2.9 W 19 24 10 13 1008.4 - 0.0
19/12:30pm 30.5 34.7 27.3 83 2.3 W 20 28 11 15 1009.0 - 0.0
19/12:00pm 29.9 33.7 27.3 86 1.9 W 22 30 12 16 1009.4 1009.3 0.0
19/11:30am 29.2 33.0 26.8 87 1.7 W 20 28 11 15 1009.7 - 0.0
19/11:00am 29.6 32.6 27.2 87 1.7 W 26 33 14 18 1010.0 - 0.0
19/10:30am 29.7 32.8 27.9 90 1.3 W 28 37 15 20 1010.0 - 0.0
19/10:00am 29.8 32.9 27.4 87 1.7 W 26 39 14 21 1010.0 - 0.0
19/09:30am 29.8 33.0 28.0 90 1.3 W 28 37 15 20 1009.9 - 0.0
19/09:00am 29.3 32.3 27.3 89 1.4 W 26 35 14 19 1010.1 1010.0 0.0
19/08:30am 29.3 32.6 27.7 91 1.2 W 26 35 14 19 1009.5 - 0.0
19/08:00am 28.9 31.6 27.3 91 1.2 W 28 33 15 18 1009.0 - 0.0
19/07:30am 28.8 32.1 27.7 94 0.8 W 26 32 14 17 1008.7 - 0.0
19/07:00am 28.7 32.3 27.6 94 0.8 W 24 32 13 17 1008.2 - 0.0
19/06:30am 28.4 31.1 26.8 91 1.1 W 26 32 14 17 1008.2 - 0.0
19/06:00am 28.4 31.1 26.8 91 1.1 W 26 33 14 18 1007.9 1007.8 0.0
19/05:30am 28.4 31.2 27.0 92 1.0 W 26 33 14 18 1007.7 - 0.0
19/05:00am 28.6 31.3 27.4 93 0.9 W 28 35 15 19 1007.7 - 0.0
19/04:30am 28.5 31.4 27.6 95 0.7 WNW 28 35 15 19 1007.4 - 0.0
19/04:00am 28.5 31.6 27.4 94 0.8 W 26 32 14 17 1007.6 - 0.0
19/03:30am 28.5 31.0 27.1 92 1.0 WNW 28 37 15 20 1007.6 - 0.0
19/03:00am 28.6 30.9 27.4 93 0.9 W 30 35 16 19 1007.8 1007.7 0.0
19/02:30am 28.7 31.9 27.5 93 0.9 W 26 35 14 19 1008.2 - 0.0
19/02:00am 28.6 31.1 27.0 91 1.1 W 28 35 15 19 1008.7 - 0.0
19/01:30am 28.5 31.4 27.1 92 1.0 W 26 32 14 17 1009.2 - 0.0
19/01:00am 28.5 32.2 27.1 92 1.0 W 22 28 12 15 1009.4 - 0.0
19/12:30am 28.4 31.3 26.6 90 1.3 W 24 32 13 17 1009.7 - 0.0
19/12:00am 28.6 31.8 27.0 91 1.1 W 24 30 13 16 1010.0 1009.9 0.0
 
Date/Time
CST
Temp
°C
App
Temp
°C
Dew
Point
°C
Rel
Hum
%
Delta-T
°C
Wind Press
QNH
hPa
Press
MSL
hPa
Rain since
9am
mm
Dir  Spd
km/h
Gust
km/h
Spd
kts
Gust
kts
18/11:30pm 28.7 32.3 27.5 93 0.9 W 24 30 13 16 1010.2 - 0.0
18/11:00pm 28.5 32.0 26.3 88 1.6 W 20 26 11 14 1010.4 - 0.0
18/10:30pm 28.7 32.1 26.7 89 1.4 W 22 32 12 17 1010.1 - 0.0
18/10:00pm 28.6 32.0 26.2 87 1.7 W 20 28 11 15 1009.8 - 0.0
18/09:30pm 28.6 31.9 26.6 89 1.4 W 22 30 12 16 1009.5 - 0.0
18/09:00pm 28.6 31.6 26.2 87 1.7 W 22 30 12 16 1009.3 1009.2 0.0
18/08:30pm 28.6 32.2 26.4 88 1.6 W 20 28 11 15 1008.8 - 0.0
18/08:00pm 28.7 32.3 26.5 88 1.6 W 20 28 11 15 1008.6 - 0.0
18/07:30pm 28.8 32.0 26.4 87 1.7 W 22 28 12 15 1008.4 - 0.0
18/07:00pm 29.1 32.7 26.5 86 1.9 W 20 28 11 15 1008.5 - 0.0
18/06:30pm 29.4 32.8 26.2 83 2.3 W 20 30 11 16 1008.3 - 0.0
18/06:00pm 30.6 34.3 27.2 82 2.5 WSW 22 35 12 19 1007.9 1007.8 0.0
18/05:30pm 30.2 34.0 26.8 82 2.4 WSW 20 30 11 16 1007.9 - 0.0
18/05:00pm 30.7 34.5 27.3 82 2.5 WSW 22 32 12 17 1007.7 - 0.0
18/04:30pm 30.9 34.7 27.3 81 2.6 W 22 32 12 17 1007.8 - 0.0
18/04:00pm 30.9 34.1 27.0 80 2.8 W 24 32 13 17 1007.8 - 0.0
18/03:30pm 31.2 34.5 27.1 79 3.0 W 24 32 13 17 1007.8 - 0.0
18/03:00pm 31.8 35.9 27.7 79 3.0 W 22 30 12 16 1008.0 1007.9 0.0
18/02:30pm 32.1 36.4 28.0 79 3.0 WSW 22 30 12 16 1008.2 - 0.0
18/02:00pm 31.9 36.2 28.0 80 2.8 W 22 30 12 16 1008.5 - 0.0
18/01:30pm 31.5 35.1 27.6 80 2.8 WSW 24 32 13 17 1009.3 - 0.0
18/01:00pm 31.6 35.8 27.9 81 2.7 WSW 22 32 12 17 1009.6 - 0.0
18/12:30pm 31.4 35.7 27.5 80 2.8 WSW 20 32 11 17 1010.2 - 0.0
18/12:00pm 31.7 36.1 27.6 79 3.0 WSW 20 32 11 17 1010.7 1010.6 0.0
18/11:30am 30.6 35.0 27.4 83 2.3 WSW 19 26 10 14 1011.1 - 0.0
18/11:00am 30.8 35.5 27.8 84 2.2 W 19 28 10 15 1010.8 - 0.0
18/10:30am 30.7 35.5 27.9 85 2.0 WSW 19 24 10 13 1011.0 - 0.0
18/10:00am 30.6 35.3 27.8 85 2.0 W 19 26 10 14 1011.1 - 0.0
18/09:30am 30.5 35.0 27.7 85 2.0 WSW 20 28 11 15 1010.7 - 0.0
18/09:00am 29.6 33.3 27.2 87 1.7 W 22 30 12 16 1010.5 1010.4 0.0
18/08:30am 29.1 33.3 27.3 90 1.3 W 20 26 11 14 1010.2 - 0.0
18/08:00am 29.0 33.1 27.2 90 1.3 W 20 28 11 15 1010.1 - 0.0
18/07:30am 28.4 31.5 26.8 91 1.1 W 24 32 13 17 1009.6 - 0.0
18/07:00am 28.2 31.1 26.6 91 1.1 W 24 30 13 16 1009.4 - 0.0
18/06:30am 28.2 30.9 26.2 89 1.4 W 24 33 13 18 1009.6 - 0.0
18/06:00am 28.2 31.1 26.6 91 1.1 W 24 32 13 17 1009.6 1009.5 0.0
18/05:30am 28.3 31.4 26.9 92 1.0 W 24 32 13 17 1009.6 - 0.0
18/05:00am 28.2 31.1 26.6 91 1.1 W 24 32 13 17 1009.5 - 0.0
18/04:30am 28.3 31.8 26.9 92 1.0 W 22 30 12 16 1009.3 - 0.0
18/04:00am 28.3 31.2 27.1 93 0.9 W 26 33 14 18 1009.3 - 0.0
18/03:30am 28.5 31.8 27.6 95 0.7 W 26 32 14 17 1009.4 - 0.0
18/03:00am 28.3 31.1 26.9 92 1.0 W 26 33 14 18 1009.5 1009.4 0.0
18/02:30am 28.4 31.3 26.6 90 1.3 W 24 30 13 16 1009.4 - 0.0
18/02:00am 28.5 32.7 27.4 94 0.8 W 20 26 11 14 1009.9 - 0.0
18/01:30am 28.2 32.1 26.6 91 1.1 W 19 26 10 14 1010.3 - 0.0
18/01:00am 28.3 32.1 26.5 90 1.3 W 19 24 10 13 1010.8 - 0.0
18/12:30am 28.5 32.5 26.7 90 1.3 WSW 19 24 10 13 1011.1 - 0.0
18/12:00am 28.6 32.9 27.2 92 1.0 WSW 19 26 10 14 1011.4 1011.3 0.0
 
Date/Time
CST
Temp
°C
App
Temp
°C
Dew
Point
°C
Rel
Hum
%
Delta-T
°C
Wind Press
QNH
hPa
Press
MSL
hPa
Rain since
9am
mm
Dir  Spd
km/h
Gust
km/h
Spd
kts
Gust
kts
17/11:30pm 28.5 33.0 26.9 91 1.1 WSW 17 24 9 13 1011.6 - 0.0
17/11:00pm 28.5 32.3 26.5 89 1.4 WSW 19 28 10 15 1011.5 - 0.0
17/10:30pm 28.6 32.5 26.6 89 1.4 WSW 19 28 10 15 1011.2 - 0.0
17/10:00pm 28.6 32.0 26.2 87 1.7 WSW 20 30 11 16 1010.5 - 0.0
17/09:30pm 28.7 32.2 26.9 90 1.3 W 22 33 12 18 1010.2 - 0.0
17/09:00pm 28.6 32.4 26.8 90 1.3 W 20 28 11 15 1010.1 1010.0 0.0
17/08:30pm 28.8 32.0 26.4 87 1.7 W 22 30 12 16 1009.9 - 0.0

Latest Capital City Observations: Canberra | Sydney | Melbourne | Brisbane | Adelaide | Perth | Hobart | Darwin

Other Formats:

Comma delimited format used in spreadsheet applications
http://www.bom.gov.au/fwo/IDD60901/IDD60901.94122.axf

JavaScript Object Notation format (JSON) in row-major order
http://www.bom.gov.au/fwo/IDD60901/IDD60901.94122.json